createdAt,value
2023-03-02T00:01:11.687Z,1.60
2023-03-02T00:03:41.941Z,1.73
2023-03-02T00:06:10.090Z,1.70
2023-03-02T00:08:38.374Z,1.55
2023-03-02T00:11:06.971Z,1.90
2023-03-02T00:13:36.177Z,1.70
2023-03-02T00:16:03.938Z,1.90
2023-03-02T00:18:31.534Z,1.85
2023-03-02T00:20:59.922Z,1.92
2023-03-02T00:23:27.445Z,1.30
2023-03-02T00:25:54.553Z,1.35
2023-03-02T00:28:22.057Z,1.60
2023-03-02T00:30:49.631Z,1.60
2023-03-02T00:33:16.851Z,1.60
2023-03-02T00:35:44.232Z,1.70
2023-03-02T00:38:12.737Z,1.52
2023-03-02T00:40:49.464Z,1.50
2023-03-02T00:43:17.418Z,1.52
2023-03-02T00:45:44.564Z,1.45
2023-03-02T00:48:11.724Z,1.45
2023-03-02T00:50:41.305Z,1.60
2023-03-02T00:53:09.621Z,1.80
2023-03-02T00:55:37.889Z,1.70
2023-03-02T00:58:06.247Z,1.50
2023-03-02T01:00:35.800Z,1.75
2023-03-02T01:03:06.014Z,1.60
2023-03-02T01:05:37.991Z,1.60
2023-03-02T01:08:05.508Z,1.50
2023-03-02T01:10:33.910Z,1.55
2023-03-02T01:13:01.318Z,1.75
2023-03-02T01:15:29.167Z,1.90
2023-03-02T01:17:56.378Z,1.83
2023-03-02T01:20:23.532Z,1.80
2023-03-02T01:22:51.180Z,1.70
2023-03-02T01:25:18.818Z,1.70
2023-03-02T01:27:46.975Z,2.15
2023-03-02T01:30:14.526Z,2.05
2023-03-02T01:32:41.868Z,1.80
2023-03-02T01:35:09.611Z,1.83
2023-03-02T01:37:36.936Z,1.85
2023-03-02T01:40:06.879Z,2.20
2023-03-02T01:42:41.289Z,2.58
2023-03-02T01:45:48.475Z,2.40
2023-03-02T01:48:37.494Z,2.50
2023-03-02T01:51:06.922Z,2.58
2023-03-02T01:53:37.676Z,2.30
2023-03-02T01:56:06.172Z,2.30
2023-03-02T01:58:38.728Z,2.60
2023-03-02T02:01:15.811Z,2.45
2023-03-02T02:03:50.028Z,2.70
2023-03-02T02:06:33.330Z,2.80
2023-03-02T02:09:03.862Z,2.67
2023-03-02T02:11:31.517Z,2.88
2023-03-02T02:14:00.697Z,2.38
2023-03-02T02:16:31.505Z,2.67
2023-03-02T02:18:58.933Z,3.20
2023-03-02T02:21:29.201Z,2.90
2023-03-02T02:24:21.062Z,3.05
2023-03-02T02:26:56.250Z,3.30
2023-03-02T02:29:33.415Z,2.80
2023-03-02T02:32:12.909Z,2.88
2023-03-02T02:34:47.904Z,3.33
2023-03-02T02:37:23.135Z,3.63
2023-03-02T02:46:56.977Z,3.10
2023-03-02T02:49:39.351Z,2.60
2023-03-02T02:52:07.515Z,2.53
2023-03-02T02:54:36.550Z,2.45
2023-03-02T02:57:05.012Z,2.53
2023-03-02T02:59:40.170Z,2.38
2023-03-02T03:02:17.167Z,2.30
2023-03-02T03:04:44.459Z,2.55
2023-03-02T03:07:19.766Z,2.30
2023-03-02T03:10:01.395Z,2.40
2023-03-02T03:12:33.628Z,2.53
2023-03-02T03:15:04.200Z,2.20
2023-03-02T03:17:32.480Z,1.70
2023-03-02T03:20:09.632Z,2.15
2023-03-02T03:22:41.551Z,2.17
2023-03-02T03:25:15.505Z,2.17
2023-03-02T03:27:46.159Z,2.50
2023-03-02T03:30:16.550Z,2.80
2023-03-02T03:32:44.659Z,2.50
2023-03-02T03:35:13.959Z,2.63
2023-03-02T03:37:42.286Z,3.15
2023-03-02T03:40:11.747Z,3.05
2023-03-02T03:42:42.007Z,3.60
2023-03-02T03:45:09.912Z,3.38
2023-03-02T03:47:38.890Z,3.90
2023-03-02T03:50:09.408Z,3.75
2023-03-02T03:52:38.112Z,4.32
2023-03-02T03:55:14.284Z,4.05
2023-03-02T03:57:43.743Z,4.05
2023-03-02T04:00:17.198Z,4.55
2023-03-02T04:02:53.077Z,4.15
2023-03-02T04:05:21.459Z,3.80
2023-03-02T04:07:52.262Z,3.95
2023-03-02T04:10:20.218Z,3.92
2023-03-02T04:12:48.393Z,3.35
2023-03-02T04:15:16.857Z,3.30
2023-03-02T04:17:45.760Z,2.90
2023-03-02T04:20:16.869Z,3.30
2023-03-02T04:22:49.360Z,3.20
2023-03-02T04:25:21.383Z,3.42
2023-03-02T04:27:53.201Z,3.38
2023-03-02T04:30:25.246Z,3.30
2023-03-02T04:32:53.449Z,3.92
2023-03-02T04:35:21.925Z,3.50
2023-03-02T04:37:49.330Z,3.47
2023-03-02T04:40:17.905Z,3.80
2023-03-02T04:42:45.183Z,3.95
2023-03-02T04:45:16.245Z,3.45
2023-03-02T04:47:44.798Z,3.42
2023-03-02T04:50:14.413Z,3.58
2023-03-02T04:52:42.171Z,3.80
2023-03-02T04:55:10.108Z,4.10
2023-03-02T04:57:37.392Z,4.15
2023-03-02T05:00:05.546Z,3.75
2023-03-02T05:02:33.818Z,3.60
2023-03-02T05:05:01.530Z,4.00
2023-03-02T05:07:33.392Z,3.80
2023-03-02T05:10:00.602Z,3.65
2023-03-02T05:12:27.931Z,3.92
2023-03-02T05:14:55.949Z,4.20
2023-03-02T05:17:23.091Z,4.13
2023-03-02T05:19:50.363Z,4.10
2023-03-02T05:22:20.284Z,3.95
2023-03-02T05:24:47.816Z,3.35
2023-03-02T05:27:14.909Z,3.05
2023-03-02T05:29:42.163Z,3.30
2023-03-02T05:32:10.607Z,3.83
2023-03-02T05:34:38.032Z,4.15
2023-03-02T05:37:05.180Z,3.42
2023-03-02T05:39:32.216Z,3.63
2023-03-02T05:41:59.542Z,3.78
2023-03-02T05:44:26.841Z,3.70
2023-03-02T05:46:54.050Z,3.42
2023-03-02T05:49:21.135Z,3.38
2023-03-02T05:51:54.993Z,3.85
2023-03-02T05:54:22.345Z,3.40
2023-03-02T05:56:50.405Z,2.90
2023-03-02T05:59:17.811Z,3.22
2023-03-02T06:01:44.953Z,2.65
2023-03-02T06:04:12.217Z,3.38
2023-03-02T06:06:39.792Z,3.30
2023-03-02T06:09:07.901Z,2.97
2023-03-02T06:11:40.139Z,3.13
2023-03-02T06:14:11.216Z,3.17
2023-03-02T06:16:43.418Z,2.95
2023-03-02T06:19:10.612Z,3.38
2023-03-02T06:21:37.855Z,3.22
2023-03-02T06:24:05.254Z,3.65
2023-03-02T06:26:37.846Z,3.20
2023-03-02T06:29:06.032Z,3.03
2023-03-02T06:31:38.422Z,3.28
2023-03-02T06:34:08.375Z,3.08
2023-03-02T06:36:38.950Z,3.30
2023-03-02T06:39:18.249Z,3.28
2023-03-02T06:41:46.894Z,3.13
2023-03-02T06:44:15.662Z,2.72
2023-03-02T06:46:43.875Z,2.78
2023-03-02T06:49:14.110Z,2.78
2023-03-02T06:51:41.834Z,2.63
2023-03-02T06:54:08.994Z,2.13
2023-03-02T06:56:36.137Z,2.25
2023-03-02T06:59:04.084Z,2.40
2023-03-02T07:01:36.021Z,1.92
2023-03-02T07:04:04.184Z,2.03
2023-03-02T07:06:31.489Z,2.85
2023-03-02T07:08:58.580Z,2.30
2023-03-02T07:11:25.615Z,2.22
2023-03-02T07:13:52.853Z,2.20
2023-03-02T07:16:20.157Z,2.10
2023-03-02T07:18:48.339Z,1.85
2023-03-02T07:21:15.497Z,2.00
2023-03-02T07:23:42.576Z,2.70
2023-03-02T07:26:10.007Z,2.58
2023-03-02T07:28:42.032Z,2.78
2023-03-02T07:31:10.137Z,2.65
2023-03-02T07:33:39.407Z,1.80
2023-03-02T07:36:08.220Z,1.35
2023-03-02T07:38:37.127Z,1.60
2023-03-02T07:41:11.308Z,1.52
2023-03-02T07:43:38.767Z,1.70
2023-03-02T07:46:06.786Z,1.85
2023-03-02T07:48:34.497Z,1.23
2023-03-02T07:51:03.507Z,1.40
2023-03-02T07:53:31.430Z,1.67
2023-03-02T07:56:02.625Z,2.00
2023-03-02T07:58:29.872Z,1.75
2023-03-02T08:01:09.167Z,1.50
2023-03-02T08:03:37.302Z,1.92
2023-03-02T08:06:09.462Z,1.70
2023-03-02T08:08:37.691Z,1.60
2023-03-02T08:11:10.641Z,2.40
2023-03-02T08:13:38.317Z,1.73
2023-03-02T08:16:08.095Z,2.20
2023-03-02T08:18:35.871Z,1.85
2023-03-02T08:21:03.369Z,1.88
2023-03-02T08:23:30.888Z,2.20
2023-03-02T08:25:58.370Z,1.70
2023-03-02T08:28:25.464Z,1.92
2023-03-02T08:31:00.055Z,2.20
2023-03-02T08:33:28.413Z,2.45
2023-03-02T08:36:07.733Z,2.33
2023-03-02T08:38:35.885Z,2.40
2023-03-02T08:41:08.559Z,2.55
2023-03-02T08:43:35.991Z,2.28
2023-03-02T08:46:03.915Z,2.83
2023-03-02T08:48:31.538Z,2.80
2023-03-02T08:51:05.223Z,2.70
2023-03-02T08:53:36.358Z,2.60
2023-03-02T08:56:07.436Z,2.40
2023-03-02T08:58:34.712Z,2.17
2023-03-02T09:01:02.177Z,2.20
2023-03-02T09:03:29.482Z,2.33
2023-03-02T09:05:56.726Z,2.60
2023-03-02T09:08:24.238Z,2.20
2023-03-02T09:10:51.391Z,2.15
2023-03-02T09:13:18.476Z,2.42
2023-03-02T09:15:45.653Z,2.03
2023-03-02T09:18:13.462Z,2.20
2023-03-02T09:20:40.772Z,2.00
2023-03-02T09:23:08.029Z,2.30
2023-03-02T09:25:35.173Z,2.15
2023-03-02T09:28:02.381Z,2.00
2023-03-02T09:30:29.638Z,1.98
2023-03-02T09:32:56.839Z,1.83
2023-03-02T09:35:24.061Z,2.67
2023-03-02T09:37:51.108Z,1.85
2023-03-02T09:40:25.675Z,2.42
2023-03-02T09:43:27.230Z,1.90
2023-03-02T09:46:06.643Z,2.20
2023-03-02T09:48:58.268Z,1.83
2023-03-02T09:52:11.821Z,1.92
2023-03-02T09:54:40.997Z,1.67
2023-03-02T09:57:36.482Z,1.60
2023-03-02T10:00:18.703Z,1.77
2023-03-02T10:02:46.844Z,1.70
2023-03-02T10:05:23.156Z,1.58
2023-03-02T10:07:50.813Z,2.00
2023-03-02T10:11:01.557Z,1.85
2023-03-02T10:13:48.363Z,1.80
2023-03-02T10:16:45.967Z,1.70
2023-03-02T10:19:17.829Z,1.85
2023-03-02T10:21:48.177Z,1.60
2023-03-02T10:24:19.074Z,2.55
2023-03-02T10:26:52.009Z,1.50
2023-03-02T10:29:57.242Z,2.00
2023-03-02T10:32:38.514Z,1.80
2023-03-02T10:35:23.290Z,1.67
2023-03-02T10:38:17.462Z,1.85
2023-03-02T10:40:48.787Z,2.10
2023-03-02T10:43:21.267Z,1.90
2023-03-02T10:46:00.338Z,1.60
2023-03-02T10:48:27.649Z,1.80
2023-03-02T10:50:57.222Z,1.95
2023-03-02T10:53:25.145Z,1.70
2023-03-02T10:55:53.850Z,1.80
2023-03-02T10:58:33.048Z,1.85
2023-03-02T11:01:17.060Z,1.95
2023-03-02T11:03:57.544Z,1.80
2023-03-02T11:06:25.612Z,1.92
2023-03-02T11:09:04.752Z,1.65
2023-03-02T11:11:32.692Z,1.75
2023-03-02T11:14:16.661Z,1.67
2023-03-02T11:16:44.189Z,2.10
2023-03-02T11:19:21.700Z,1.88
2023-03-02T11:22:06.362Z,2.28
2023-03-02T11:24:42.158Z,1.45
2023-03-02T11:27:25.475Z,1.60
2023-03-02T11:30:05.209Z,1.90
2023-03-02T11:32:37.482Z,1.63
2023-03-02T11:35:30.186Z,1.92
2023-03-02T11:38:10.709Z,2.03
2023-03-02T11:40:52.351Z,2.10
2023-03-02T11:43:19.896Z,2.22
2023-03-02T11:45:55.446Z,2.10
2023-03-02T11:48:33.520Z,1.83
2023-03-02T11:51:39.074Z,1.98
2023-03-02T11:54:41.007Z,1.77
2023-03-02T11:57:19.717Z,2.00
2023-03-02T11:59:48.300Z,1.70
2023-03-02T12:02:16.117Z,2.10
2023-03-02T12:04:43.452Z,1.80
2023-03-02T12:07:26.102Z,1.85
2023-03-02T12:10:24.651Z,1.92
2023-03-02T12:13:17.048Z,1.88
2023-03-02T12:15:53.083Z,1.90
2023-03-02T12:18:23.673Z,1.75
2023-03-02T12:21:08.208Z,1.95
2023-03-02T12:23:55.619Z,1.67
2023-03-02T12:26:37.915Z,1.75
2023-03-02T12:29:11.665Z,2.00
2023-03-02T12:31:47.639Z,2.10
2023-03-02T12:34:45.556Z,2.15
2023-03-02T12:37:26.698Z,1.83
2023-03-02T12:40:13.462Z,2.25
2023-03-02T12:42:49.732Z,2.20
2023-03-02T12:45:44.250Z,2.10
2023-03-02T12:48:28.844Z,1.98
2023-03-02T12:51:01.319Z,1.90
2023-03-02T12:53:29.953Z,2.08
2023-03-02T12:55:57.573Z,2.10
2023-03-02T12:58:29.457Z,2.00
2023-03-02T13:01:02.084Z,2.53
2023-03-02T13:03:31.226Z,2.20
2023-03-02T13:06:04.780Z,2.40
2023-03-02T13:08:46.697Z,2.47
2023-03-02T13:11:20.659Z,2.28
2023-03-02T13:13:48.779Z,2.03
2023-03-02T13:16:32.705Z,2.40
2023-03-02T13:19:02.666Z,2.20
2023-03-02T13:21:37.949Z,1.90
2023-03-02T13:24:34.090Z,2.20
2023-03-02T13:27:19.001Z,2.20
2023-03-02T13:29:47.116Z,2.13
2023-03-02T13:32:23.871Z,2.42
2023-03-02T13:34:57.752Z,2.00
2023-03-02T13:37:37.842Z,2.33
2023-03-02T13:40:31.009Z,2.50
2023-03-02T13:42:58.461Z,2.10
2023-03-02T13:45:28.739Z,2.13
2023-03-02T13:47:59.561Z,1.83
2023-03-02T13:50:29.817Z,2.17
2023-03-02T13:53:01.028Z,1.90
2023-03-02T13:55:28.546Z,2.33
2023-03-02T13:57:56.688Z,2.17
2023-03-02T14:00:31.695Z,2.10
2023-03-02T14:03:00.476Z,2.08
2023-03-02T14:05:33.719Z,1.80
2023-03-02T14:08:01.439Z,1.83
2023-03-02T14:10:29.563Z,2.25
2023-03-02T14:13:01.585Z,2.25
2023-03-02T14:15:29.064Z,2.00
2023-03-02T14:17:56.195Z,2.30
2023-03-02T14:20:23.379Z,1.98
2023-03-02T14:22:50.880Z,1.92
2023-03-02T14:25:19.606Z,1.92
2023-03-02T14:27:47.603Z,1.77
2023-03-02T14:30:19.641Z,2.08
2023-03-02T14:32:46.890Z,1.83
2023-03-02T14:35:16.699Z,1.98
2023-03-02T14:37:49.610Z,2.10
2023-03-02T14:40:28.429Z,2.10
2023-03-02T14:42:56.102Z,2.50
2023-03-02T14:45:23.405Z,2.33
2023-03-02T14:47:50.670Z,2.67
2023-03-02T14:50:17.845Z,2.60
2023-03-02T14:52:50.088Z,2.08
2023-03-02T14:55:33.212Z,2.28
2023-03-02T14:58:04.650Z,2.40
2023-03-02T15:00:32.531Z,2.63
2023-03-02T15:02:59.924Z,2.30
2023-03-02T15:05:27.341Z,2.15
2023-03-02T15:07:58.721Z,2.40
2023-03-02T15:10:26.334Z,2.30
2023-03-02T15:12:53.397Z,2.40
2023-03-02T15:15:20.811Z,2.33
2023-03-02T15:17:47.941Z,2.53
2023-03-02T15:20:16.529Z,2.30
2023-03-02T15:22:44.090Z,2.22
2023-03-02T15:25:11.533Z,2.30
2023-03-02T15:27:39.483Z,2.33
2023-03-02T15:30:07.460Z,2.50
2023-03-02T15:32:36.650Z,2.53
2023-03-02T15:35:04.268Z,2.42
2023-03-02T15:37:31.755Z,2.50
2023-03-02T15:39:59.065Z,2.95
2023-03-02T15:42:26.303Z,2.80
2023-03-02T15:44:53.784Z,2.60
2023-03-02T15:47:21.300Z,2.55
2023-03-02T15:49:48.473Z,3.00
2023-03-02T15:52:16.060Z,2.92
2023-03-02T15:54:43.391Z,2.92
2023-03-02T15:57:10.619Z,2.72
2023-03-02T15:59:38.444Z,3.33
2023-03-02T16:02:05.907Z,3.40
2023-03-02T16:04:34.028Z,2.70
2023-03-02T16:07:01.650Z,3.22
2023-03-02T16:09:31.015Z,2.90
2023-03-02T16:11:59.170Z,2.95
2023-03-02T16:14:26.596Z,2.72
2023-03-02T16:16:53.763Z,2.70
2023-03-02T16:19:24.235Z,2.95
2023-03-02T16:21:51.392Z,2.80
2023-03-02T16:24:18.747Z,3.38
2023-03-02T16:26:46.391Z,2.88
2023-03-02T16:29:14.129Z,3.10
2023-03-02T16:31:42.042Z,3.15
2023-03-02T16:34:10.774Z,2.75
2023-03-02T16:36:42.926Z,3.25
2023-03-02T16:39:11.636Z,3.30
2023-03-02T16:41:40.662Z,3.05
2023-03-02T16:44:08.316Z,3.28
2023-03-02T16:46:37.585Z,3.30
2023-03-02T16:49:06.251Z,3.00
2023-03-02T16:51:34.644Z,3.10
2023-03-02T16:54:02.511Z,3.72
2023-03-02T16:56:30.249Z,3.58
2023-03-02T16:58:59.972Z,3.83
2023-03-02T17:01:28.263Z,3.78
2023-03-02T17:03:56.933Z,4.10
2023-03-02T17:06:24.853Z,4.03
2023-03-02T17:08:52.480Z,4.68
2023-03-02T17:11:20.149Z,4.07
2023-03-02T17:13:47.711Z,3.90
2023-03-02T17:16:16.425Z,4.05
2023-03-02T17:18:47.434Z,3.97
2023-03-02T17:21:16.685Z,3.97
2023-03-02T17:23:44.488Z,4.03
2023-03-02T17:26:12.243Z,4.32
2023-03-02T17:28:39.763Z,3.60
2023-03-02T17:31:07.434Z,3.92
2023-03-02T17:33:35.663Z,3.75
2023-03-02T17:36:07.589Z,4.47
2023-03-02T17:38:35.073Z,4.30
2023-03-02T17:41:04.371Z,3.78
2023-03-02T17:43:35.788Z,4.97
2023-03-02T17:46:30.117Z,5.57
2023-03-02T17:48:59.222Z,4.82
2023-03-02T17:51:27.974Z,4.53
2023-03-02T17:54:04.801Z,5.25
2023-03-02T17:56:34.690Z,4.93
2023-03-02T17:59:08.928Z,4.93
2023-03-02T18:01:44.951Z,5.03
2023-03-02T18:04:17.014Z,4.97
2023-03-02T18:06:47.174Z,5.13
2023-03-02T18:09:17.796Z,5.53
2023-03-02T18:11:47.924Z,5.30
2023-03-02T18:14:17.428Z,5.78
2023-03-02T18:16:44.710Z,5.78
2023-03-02T18:19:11.981Z,5.90
2023-03-02T18:21:54.940Z,5.82
2023-03-02T18:24:22.210Z,5.57
2023-03-02T18:26:51.878Z,5.50
2023-03-02T18:29:19.120Z,6.05
2023-03-02T18:31:46.967Z,5.57
2023-03-02T18:34:14.251Z,6.20
2023-03-02T18:36:42.320Z,5.43
2023-03-02T18:39:11.932Z,5.72
2023-03-02T18:41:39.405Z,5.65
2023-03-02T18:44:07.626Z,5.60
2023-03-02T18:46:35.108Z,5.30
2023-03-02T18:49:04.616Z,5.47
2023-03-02T18:51:31.883Z,6.07
2023-03-02T18:53:59.801Z,5.90
2023-03-02T18:56:27.795Z,5.82
2023-03-02T18:58:55.225Z,5.60
2023-03-02T19:01:22.805Z,6.07
2023-03-02T19:03:57.017Z,5.57
2023-03-02T19:06:25.041Z,5.82
2023-03-02T19:08:52.174Z,6.20
2023-03-02T19:11:20.274Z,6.53
2023-03-02T19:13:49.139Z,6.25
2023-03-02T19:16:19.169Z,5.85
2023-03-02T19:18:46.567Z,5.78
2023-03-02T19:21:14.226Z,5.85
2023-03-02T19:23:42.097Z,5.50
2023-03-02T19:26:09.701Z,6.10
2023-03-02T19:28:40.035Z,5.72
2023-03-02T19:31:08.991Z,5.13
2023-03-02T19:33:37.065Z,5.20
2023-03-02T19:36:05.791Z,5.50
2023-03-02T19:38:33.341Z,5.30
2023-03-02T19:41:02.125Z,5.30
2023-03-02T19:43:29.850Z,5.43
2023-03-02T19:45:56.970Z,5.05
2023-03-02T19:48:26.262Z,5.07
2023-03-02T19:50:54.721Z,5.13
2023-03-02T19:53:22.467Z,5.30
2023-03-02T19:55:51.498Z,5.43
2023-03-02T19:58:20.516Z,5.03
2023-03-02T20:00:49.000Z,5.03
2023-03-02T20:03:16.408Z,4.68
2023-03-02T20:05:43.562Z,5.10
2023-03-02T20:08:11.173Z,4.80
2023-03-02T20:10:43.244Z,5.60
2023-03-02T20:13:11.555Z,5.18
2023-03-02T20:15:43.002Z,4.80
2023-03-02T20:18:15.022Z,5.32
2023-03-02T20:20:45.318Z,5.30
2023-03-02T20:23:13.326Z,4.70
2023-03-02T20:25:40.883Z,5.90
2023-03-02T20:28:11.936Z,5.00
2023-03-02T20:30:46.869Z,5.10
2023-03-02T20:35:45.202Z,5.43
2023-03-02T20:38:21.751Z,5.55
2023-03-02T20:40:49.214Z,4.53
2023-03-02T20:43:17.274Z,5.45
2023-03-02T20:45:45.098Z,5.47
2023-03-02T20:48:13.322Z,5.82
2023-03-02T20:50:42.126Z,5.30
2023-03-02T20:53:10.598Z,4.93
2023-03-02T20:55:38.051Z,5.47
2023-03-02T20:58:05.673Z,6.05
2023-03-02T21:00:33.976Z,5.43
2023-03-02T21:03:01.320Z,5.95
2023-03-02T21:05:31.691Z,5.55
2023-03-02T21:07:59.648Z,5.28
2023-03-02T21:10:32.963Z,4.78
2023-03-02T21:13:04.461Z,5.28
2023-03-02T21:15:32.363Z,5.13
2023-03-02T21:18:00.917Z,5.35
2023-03-02T21:20:32.318Z,5.72
2023-03-02T21:22:59.994Z,5.10
2023-03-02T21:25:28.368Z,5.35
2023-03-02T21:27:56.240Z,5.95
2023-03-02T21:30:28.282Z,5.32
2023-03-02T21:32:56.300Z,5.95
2023-03-02T21:35:24.656Z,6.60
2023-03-02T21:38:00.494Z,6.55
2023-03-02T21:40:32.323Z,6.13
2023-03-02T21:43:00.571Z,6.40
2023-03-02T21:45:29.048Z,6.18
2023-03-02T21:47:56.413Z,6.43
2023-03-02T21:50:27.146Z,6.20
2023-03-02T21:52:55.750Z,6.60
2023-03-02T21:55:22.910Z,5.70
2023-03-02T21:57:50.057Z,6.28
2023-03-02T22:00:23.797Z,6.50
2023-03-02T22:02:51.851Z,6.20
2023-03-02T22:05:20.123Z,6.60
2023-03-02T22:07:48.013Z,6.10
2023-03-02T22:10:29.557Z,6.20
2023-03-02T22:13:12.389Z,6.90
2023-03-02T22:15:41.387Z,5.93
2023-03-02T22:18:17.550Z,6.53
2023-03-02T22:20:48.002Z,7.20
2023-03-02T22:23:17.751Z,7.28
2023-03-02T22:25:44.892Z,7.18
2023-03-02T22:28:18.691Z,6.88
2023-03-02T22:30:45.964Z,5.70
2023-03-02T22:33:25.612Z,6.22
2023-03-02T22:36:00.914Z,6.47
2023-03-02T22:38:30.938Z,6.13
2023-03-02T22:40:58.037Z,6.80
2023-03-02T22:43:31.189Z,6.80
2023-03-02T22:46:20.398Z,6.72
2023-03-02T22:48:52.212Z,6.90
2023-03-02T22:51:22.105Z,7.05
2023-03-02T22:53:55.001Z,7.40
2023-03-02T22:56:35.126Z,7.03
2023-03-02T22:59:26.095Z,7.05
2023-03-02T23:02:14.130Z,7.00
2023-03-02T23:04:49.918Z,7.22
2023-03-02T23:07:20.108Z,6.97
2023-03-02T23:09:51.160Z,6.53
2023-03-02T23:12:28.260Z,7.05
2023-03-02T23:14:57.461Z,6.78
2023-03-02T23:17:37.221Z,6.50
2023-03-02T23:20:08.899Z,6.70
2023-03-02T23:22:39.069Z,6.93
2023-03-02T23:25:09.732Z,6.15
2023-03-02T23:27:37.074Z,6.43
2023-03-02T23:30:08.857Z,6.65
2023-03-02T23:32:36.784Z,7.07
2023-03-02T23:35:04.270Z,6.30
2023-03-02T23:37:31.472Z,6.50
2023-03-02T23:39:58.600Z,6.47
2023-03-02T23:42:25.735Z,6.45
2023-03-02T23:44:53.426Z,7.03
2023-03-02T23:47:20.546Z,6.72
2023-03-02T23:49:49.369Z,7.03
2023-03-02T23:52:17.501Z,6.57
2023-03-02T23:54:46.310Z,6.97
2023-03-02T23:57:13.656Z,7.03
2023-03-02T23:59:42.298Z,6.75
